Archival Weather

Václav Havel Intl Apt

Prague, Czechia (LKPR)

Report from: Monday, May 29, 2023 1:30 AM CEST
Current time: Saturday, February 24, 2024 6:06 PM CET

Current weather – Weather history – Daily summaries
Weather forecast

Temperature11.0°C (51.8°F)
Dew point5.0°C (41.0°F)
Winds 3 kts (1.5 m/s, 3.5 mph) Vrb
Winds variableWinds variable from Northwest (310°) to North (10°)
Visibility6.2 mi. (10 km)
Clouds Few clouds 1,000 ft. (305 m)
Altimeter30.09 in.Hg (1019 mB)
Relative humidity66 %
Density altitude-544 ft. (-166 m)
Remarks No significant changes expected in the next two hours
Flight conditions Visual Meteorological Conditions
Raw dataLKPR 282330Z 32003KT 310V010 9999 FEW010 11/05 Q1019 NOSIG
An error has occurred. This application may no longer respond until reloaded. Reload 🗙